createdAt,value
2018-06-24T00:00:15.861Z,7.87
2018-06-24T00:02:44.517Z,11.40
2018-06-24T00:05:12.928Z,9.27
2018-06-24T00:07:41.392Z,10.50
2018-06-24T00:10:10.219Z,7.70
2018-06-24T00:12:38.745Z,15.60
2018-06-24T00:15:07.345Z,7.53
2018-06-24T00:17:35.791Z,7.73
2018-06-24T00:20:04.340Z,8.40
2018-06-24T00:22:32.925Z,8.80
2018-06-24T00:25:01.365Z,9.87
2018-06-24T00:27:29.808Z,8.50
2018-06-24T00:29:58.212Z,9.33
2018-06-24T00:32:26.695Z,8.77
2018-06-24T00:34:55.155Z,11.73
2018-06-24T00:37:23.596Z,15.73
2018-06-24T00:39:52.048Z,7.37
2018-06-24T00:42:20.523Z,10.90
2018-06-24T00:44:48.968Z,10.07
2018-06-24T00:47:17.368Z,11.23
2018-06-24T00:49:45.799Z,10.77
2018-06-24T00:52:14.258Z,7.47
2018-06-24T00:54:42.706Z,6.33
2018-06-24T00:57:11.578Z,9.60
2018-06-24T00:59:51.251Z,4.37
2018-06-24T01:02:19.718Z,4.20
2018-06-24T01:04:48.146Z,4.17
2018-06-24T01:07:16.682Z,9.20
2018-06-24T01:09:45.119Z,6.23
2018-06-24T01:12:13.534Z,7.27
2018-06-24T01:14:41.981Z,8.17
2018-06-24T01:17:10.544Z,4.87
2018-06-24T01:19:39.379Z,7.00
2018-06-24T01:22:07.840Z,4.47
2018-06-24T01:24:36.399Z,8.00
2018-06-24T01:27:05.160Z,7.77
2018-06-24T01:29:33.618Z,8.60
2018-06-24T01:32:02.069Z,5.47
2018-06-24T01:34:30.649Z,8.40
2018-06-24T01:36:59.080Z,5.67
2018-06-24T01:39:27.491Z,8.57
2018-06-24T01:41:55.923Z,13.80
2018-06-24T01:44:24.327Z,4.40
2018-06-24T01:46:52.763Z,7.10
2018-06-24T01:49:21.180Z,9.50
2018-06-24T01:51:49.652Z,10.63
2018-06-24T01:54:18.330Z,8.97
2018-06-24T01:56:47.027Z,9.10
2018-06-24T01:59:15.502Z,7.70
2018-06-24T02:01:43.916Z,6.47
2018-06-24T02:04:12.318Z,7.13
2018-06-24T02:06:40.775Z,12.80
2018-06-24T02:09:11.998Z,10.80
2018-06-24T02:11:40.678Z,16.23
2018-06-24T02:14:09.071Z,5.63
2018-06-24T02:16:38.063Z,10.77
2018-06-24T02:19:07.814Z,10.17
2018-06-24T02:21:36.250Z,8.33
2018-06-24T02:24:04.808Z,12.83
2018-06-24T02:26:33.255Z,10.90
2018-06-24T02:29:01.788Z,13.07
2018-06-24T02:31:30.243Z,10.00
2018-06-24T02:35:27.849Z,13.13
2018-06-24T02:37:56.256Z,10.47
2018-06-24T02:40:24.709Z,16.70
2018-06-24T02:42:53.342Z,9.87
2018-06-24T02:46:50.887Z,9.93
2018-06-24T02:49:19.350Z,11.80
2018-06-24T02:51:47.823Z,22.23
2018-06-24T02:54:16.625Z,21.17
2018-06-24T02:56:45.068Z,15.73
2018-06-24T02:59:13.546Z,14.30
2018-06-24T03:01:42.008Z,19.67
2018-06-24T03:04:10.426Z,20.53
2018-06-24T03:06:38.844Z,18.67
2018-06-24T03:09:09.305Z,24.03
2018-06-24T03:11:37.785Z,12.80
2018-06-24T03:14:06.271Z,13.73
2018-06-24T03:16:34.927Z,14.90
2018-06-24T03:19:03.392Z,10.37
2018-06-24T03:21:31.831Z,18.10
2018-06-24T03:24:00.247Z,8.13
2018-06-24T03:26:28.691Z,14.07
2018-06-24T03:28:57.228Z,16.07
2018-06-24T03:31:25.840Z,14.40
2018-06-24T03:33:54.468Z,17.47
2018-06-24T03:36:23.055Z,15.20
2018-06-24T03:38:51.463Z,17.50
2018-06-24T03:41:19.979Z,13.63
2018-06-24T03:43:48.440Z,19.33
2018-06-24T03:46:16.870Z,15.70
2018-06-24T03:48:45.596Z,25.90
2018-06-24T03:51:14.023Z,15.17
2018-06-24T03:53:42.491Z,10.90
2018-06-24T03:56:11.289Z,19.57
2018-06-24T03:58:39.568Z,15.13
2018-06-24T04:01:08.008Z,17.43
2018-06-24T04:03:36.434Z,14.50
2018-06-24T04:06:04.926Z,22.20
2018-06-24T04:08:33.339Z,24.17
2018-06-24T04:11:01.816Z,25.77
2018-06-24T04:13:30.205Z,21.97
2018-06-24T04:16:04.648Z,16.00
2018-06-24T04:18:42.669Z,18.23
2018-06-24T04:21:12.779Z,20.93
2018-06-24T04:23:42.710Z,18.13
2018-06-24T04:26:11.864Z,20.53
2018-06-24T04:28:40.676Z,21.47
2018-06-24T04:31:10.272Z,21.10
2018-06-24T04:33:38.823Z,15.37
2018-06-24T04:36:07.283Z,21.00
2018-06-24T04:38:35.730Z,21.23
2018-06-24T04:41:04.260Z,22.07
2018-06-24T04:43:33.527Z,21.37
2018-06-24T04:46:01.991Z,14.67
2018-06-24T04:48:30.623Z,11.83
2018-06-24T04:50:59.090Z,30.63
2018-06-24T04:53:27.615Z,21.17
2018-06-24T04:55:56.306Z,21.40
2018-06-24T04:58:24.707Z,16.70
2018-06-24T05:00:53.142Z,17.43
2018-06-24T05:03:21.599Z,21.43
2018-06-24T05:05:50.015Z,15.50
2018-06-24T05:08:18.507Z,25.73
2018-06-24T05:10:46.936Z,14.63
2018-06-24T05:13:15.427Z,13.60
2018-06-24T05:15:43.856Z,13.97
2018-06-24T05:18:12.441Z,15.27
2018-06-24T05:20:40.954Z,16.70
2018-06-24T05:23:09.429Z,19.60
2018-06-24T05:25:37.868Z,24.67
2018-06-24T05:28:06.401Z,18.63
2018-06-24T05:30:34.863Z,19.07
2018-06-24T05:33:03.304Z,17.60
2018-06-24T05:35:31.756Z,11.30
2018-06-24T05:38:00.236Z,13.43
2018-06-24T05:40:28.729Z,28.77
2018-06-24T05:42:57.223Z,20.67
2018-06-24T05:45:25.624Z,15.83
2018-06-24T05:47:54.069Z,29.73
2018-06-24T05:50:22.562Z,24.03
2018-06-24T05:52:51.036Z,11.73
2018-06-24T05:55:19.610Z,15.63
2018-06-24T05:57:48.096Z,20.07
2018-06-24T06:00:16.608Z,16.57
2018-06-24T06:02:45.070Z,14.77
2018-06-24T06:05:13.523Z,10.80
2018-06-24T06:07:42.140Z,14.20
2018-06-24T06:10:10.613Z,14.40
2018-06-24T06:12:39.075Z,15.73
2018-06-24T06:15:07.570Z,13.40
2018-06-24T06:17:36.045Z,16.10
2018-06-24T06:20:05.180Z,13.97
2018-06-24T06:22:33.634Z,17.53
2018-06-24T06:25:02.657Z,16.03
2018-06-24T06:27:31.160Z,14.60
2018-06-24T06:29:59.593Z,15.63
2018-06-24T06:32:28.323Z,9.23
2018-06-24T06:34:57.020Z,18.77
2018-06-24T06:37:25.484Z,15.47
2018-06-24T06:39:53.914Z,11.13
2018-06-24T06:42:22.362Z,16.07
2018-06-24T06:44:50.919Z,22.03
2018-06-24T06:47:19.328Z,16.47
2018-06-24T06:49:47.939Z,25.50
2018-06-24T06:52:16.616Z,18.40
2018-06-24T06:54:45.451Z,10.00
2018-06-24T06:57:14.770Z,13.83
2018-06-24T06:59:43.257Z,7.77
2018-06-24T07:02:11.905Z,12.70
2018-06-24T07:04:40.865Z,12.23
2018-06-24T07:07:10.115Z,11.60
2018-06-24T07:09:38.850Z,8.93
2018-06-24T07:12:07.548Z,12.77
2018-06-24T07:14:36.694Z,24.70
2018-06-24T07:17:05.755Z,11.20
2018-06-24T07:19:34.205Z,14.83
2018-06-24T07:22:02.741Z,12.73
2018-06-24T07:24:31.435Z,14.40
2018-06-24T07:26:59.938Z,11.87
2018-06-24T07:29:28.366Z,14.40
2018-06-24T07:31:56.841Z,13.63
2018-06-24T07:34:25.309Z,14.93
2018-06-24T07:36:53.804Z,10.67
2018-06-24T07:39:22.373Z,18.80
2018-06-24T07:41:50.828Z,17.63
2018-06-24T07:44:19.223Z,13.60
2018-06-24T07:46:47.710Z,14.13
2018-06-24T07:49:16.140Z,9.03
2018-06-24T07:51:44.587Z,13.93
2018-06-24T07:54:13.263Z,11.90
2018-06-24T07:56:41.687Z,13.63
2018-06-24T07:59:10.107Z,20.07
2018-06-24T08:01:38.547Z,19.53
2018-06-24T08:04:06.947Z,20.10
2018-06-24T08:06:35.359Z,17.90
2018-06-24T08:09:04.911Z,13.33
2018-06-24T08:11:33.372Z,15.10
2018-06-24T08:14:01.898Z,13.57
2018-06-24T08:16:30.308Z,14.87
2018-06-24T08:18:58.723Z,13.00
2018-06-24T08:21:27.122Z,9.13
2018-06-24T08:23:55.577Z,9.83
2018-06-24T08:26:24.322Z,8.93
2018-06-24T08:28:52.731Z,15.30
2018-06-24T08:31:21.195Z,16.10
2018-06-24T08:33:49.838Z,12.97
2018-06-24T08:36:18.504Z,12.60
2018-06-24T08:38:47.809Z,14.03
2018-06-24T08:41:16.510Z,18.83
2018-06-24T08:43:45.265Z,12.43
2018-06-24T08:46:13.914Z,20.83
2018-06-24T08:48:42.326Z,9.93
2018-06-24T08:51:10.801Z,10.50
2018-06-24T08:53:39.346Z,9.70
2018-06-24T08:56:07.807Z,14.60
2018-06-24T08:58:36.238Z,15.67
2018-06-24T09:01:04.731Z,13.30
2018-06-24T09:03:33.166Z,21.60
2018-06-24T09:06:01.872Z,16.80
2018-06-24T09:08:30.294Z,16.07
2018-06-24T09:10:58.943Z,19.50
2018-06-24T09:13:27.674Z,15.67
2018-06-24T09:15:56.140Z,13.50
2018-06-24T09:18:24.611Z,15.17
2018-06-24T09:20:53.035Z,14.97
2018-06-24T09:23:21.492Z,16.70
2018-06-24T09:25:49.978Z,11.33
2018-06-24T09:28:18.427Z,19.77
2018-06-24T09:30:47.036Z,10.03
2018-06-24T09:33:15.423Z,17.43
2018-06-24T09:35:43.911Z,15.13
2018-06-24T09:38:12.337Z,15.90
2018-06-24T09:40:41.009Z,13.73
2018-06-24T09:43:09.474Z,14.47
2018-06-24T09:45:37.935Z,25.67
2018-06-24T09:48:06.563Z,13.47
2018-06-24T09:50:34.984Z,11.33
2018-06-24T09:53:04.063Z,11.13
2018-06-24T09:55:33.131Z,13.30
2018-06-24T09:58:01.581Z,16.37
2018-06-24T10:00:30.284Z,14.87
2018-06-24T10:02:58.929Z,13.60
2018-06-24T10:05:27.368Z,16.20
2018-06-24T10:07:55.792Z,13.00
2018-06-24T10:10:24.204Z,9.80
2018-06-24T10:12:52.645Z,13.00
2018-06-24T10:15:21.067Z,11.10
2018-06-24T10:17:49.531Z,13.47
2018-06-24T10:20:17.951Z,11.30
2018-06-24T10:22:46.571Z,6.77
2018-06-24T10:25:15.249Z,6.60
2018-06-24T10:27:43.668Z,11.20
2018-06-24T10:30:12.139Z,13.17
2018-06-24T10:32:40.611Z,11.50
2018-06-24T10:36:38.422Z,9.77
2018-06-24T10:39:09.567Z,5.63
2018-06-24T10:41:37.990Z,11.10
2018-06-24T10:44:06.690Z,9.63
2018-06-24T10:46:35.107Z,10.07
2018-06-24T10:49:03.926Z,8.37
2018-06-24T10:51:32.740Z,7.87
2018-06-24T10:54:01.210Z,5.50
2018-06-24T10:56:29.723Z,8.83
2018-06-24T10:58:58.127Z,10.50
2018-06-24T11:01:26.581Z,7.07
2018-06-24T11:03:54.972Z,5.37
2018-06-24T11:06:23.428Z,6.60
2018-06-24T11:08:51.922Z,9.70
2018-06-24T11:11:20.389Z,17.50
2018-06-24T11:13:48.844Z,16.23
2018-06-24T11:16:17.288Z,8.20
2018-06-24T11:18:45.903Z,11.87
2018-06-24T11:21:14.384Z,9.17
2018-06-24T11:23:43.041Z,7.63
2018-06-24T11:26:11.661Z,11.03
2018-06-24T11:28:40.141Z,10.17
2018-06-24T11:31:09.329Z,9.40
2018-06-24T11:33:37.747Z,13.50
2018-06-24T11:36:06.184Z,14.43
2018-06-24T11:38:34.677Z,12.73
2018-06-24T11:41:03.219Z,13.47
2018-06-24T11:43:31.729Z,7.90
2018-06-24T11:46:00.162Z,9.23
2018-06-24T11:48:28.599Z,10.07
2018-06-24T11:50:57.059Z,16.07
2018-06-24T11:53:25.471Z,9.07
2018-06-24T11:55:54.180Z,7.03
2018-06-24T11:58:22.612Z,8.53
2018-06-24T12:00:51.085Z,15.10
2018-06-24T12:03:19.540Z,10.63
2018-06-24T12:05:48.143Z,9.20
2018-06-24T12:08:16.920Z,8.90
2018-06-24T12:10:45.654Z,8.63
2018-06-24T12:13:14.131Z,8.33
2018-06-24T12:15:42.526Z,12.10
2018-06-24T12:18:10.931Z,9.03
2018-06-24T12:20:39.409Z,14.50
2018-06-24T12:23:07.823Z,6.90
2018-06-24T12:25:36.266Z,12.03
2018-06-24T12:28:04.744Z,12.93
2018-06-24T12:30:33.200Z,10.73
2018-06-24T12:33:01.648Z,10.73
2018-06-24T12:35:30.097Z,17.17
2018-06-24T12:37:58.535Z,10.80
2018-06-24T12:40:34.162Z,8.33
2018-06-24T12:43:04.094Z,10.37
2018-06-24T12:45:33.381Z,10.07
2018-06-24T12:48:02.065Z,10.40
2018-06-24T12:50:30.507Z,7.40
2018-06-24T12:52:58.930Z,4.50
2018-06-24T12:55:27.751Z,9.37
2018-06-24T12:57:56.867Z,6.53
2018-06-24T13:00:26.312Z,7.67
2018-06-24T13:02:54.214Z,4.23
2018-06-24T13:05:22.940Z,5.10
2018-06-24T13:07:51.526Z,6.40
2018-06-24T13:10:19.999Z,6.00
2018-06-24T13:12:48.418Z,6.10
2018-06-24T13:15:16.871Z,6.47
2018-06-24T13:17:45.300Z,7.97
2018-06-24T13:20:13.735Z,4.77
2018-06-24T13:22:42.542Z,5.93
2018-06-24T13:25:11.155Z,7.33
2018-06-24T13:27:39.864Z,9.67
2018-06-24T13:30:08.347Z,7.30
2018-06-24T13:32:36.819Z,10.73
2018-06-24T13:35:05.304Z,3.00
2018-06-24T13:37:33.801Z,4.40
2018-06-24T13:40:02.228Z,7.63
2018-06-24T13:42:30.690Z,3.13
2018-06-24T13:44:59.159Z,3.27
2018-06-24T13:47:27.638Z,3.73
2018-06-24T13:49:56.202Z,4.27
2018-06-24T13:52:24.614Z,3.67
2018-06-24T13:54:53.044Z,4.20
2018-06-24T13:57:21.722Z,3.47
2018-06-24T13:59:50.244Z,3.17
2018-06-24T14:02:18.724Z,4.40
2018-06-24T14:04:47.435Z,4.80
2018-06-24T14:07:15.919Z,4.80
2018-06-24T14:09:44.406Z,2.80
2018-06-24T14:12:12.873Z,5.43
2018-06-24T14:14:41.319Z,2.20
2018-06-24T14:17:09.743Z,1.80
2018-06-24T14:19:38.199Z,2.13
2018-06-24T14:22:06.667Z,4.40
2018-06-24T14:24:35.487Z,4.30
2018-06-24T14:27:03.996Z,3.00
2018-06-24T14:29:32.632Z,4.30
2018-06-24T14:32:01.144Z,2.80
2018-06-24T14:34:29.567Z,3.77
2018-06-24T14:36:58.415Z,3.10
2018-06-24T14:39:26.947Z,5.90
2018-06-24T14:41:55.388Z,2.27
2018-06-24T14:44:24.220Z,4.57
2018-06-24T14:46:52.726Z,5.80
2018-06-24T14:49:21.161Z,5.17
2018-06-24T14:51:49.615Z,3.37
2018-06-24T14:54:18.021Z,9.90
2018-06-24T14:56:46.676Z,3.67
2018-06-24T14:59:15.169Z,5.83
2018-06-24T15:01:43.588Z,4.03
2018-06-24T15:04:12.015Z,5.37
2018-06-24T15:06:40.449Z,4.83
2018-06-24T15:09:11.514Z,3.33
2018-06-24T15:11:40.173Z,4.83
2018-06-24T15:14:09.083Z,2.93
2018-06-24T15:16:38.231Z,9.50
2018-06-24T15:19:07.480Z,4.87
2018-06-24T15:21:36.399Z,3.40
2018-06-24T15:24:04.863Z,9.57
2018-06-24T15:26:33.376Z,4.80
2018-06-24T15:29:01.827Z,5.07
2018-06-24T15:31:30.278Z,3.47
2018-06-24T15:33:58.990Z,3.33
2018-06-24T15:36:27.463Z,8.83
2018-06-24T15:38:55.901Z,2.70
2018-06-24T15:41:24.397Z,3.93
2018-06-24T15:43:52.883Z,3.10
2018-06-24T15:46:21.295Z,4.17
2018-06-24T15:48:49.800Z,4.20
2018-06-24T15:51:19.495Z,2.43
2018-06-24T15:53:48.300Z,4.30
2018-06-24T15:56:17.327Z,1.90
2018-06-24T15:58:45.729Z,4.20
2018-06-24T16:01:14.225Z,4.73
2018-06-24T16:03:42.689Z,3.60
2018-06-24T16:06:11.564Z,2.43
2018-06-24T16:08:39.958Z,2.10
2018-06-24T16:11:08.353Z,3.07
2018-06-24T16:13:36.842Z,3.50
2018-06-24T16:16:05.279Z,5.00
2018-06-24T16:18:34.381Z,5.57
2018-06-24T16:21:03.230Z,2.93
2018-06-24T16:23:31.274Z,6.63
2018-06-24T16:25:59.902Z,8.67
2018-06-24T16:28:28.316Z,5.10
2018-06-24T16:30:56.916Z,5.93
2018-06-24T16:33:25.319Z,2.57
2018-06-24T16:35:53.883Z,5.73
2018-06-24T16:38:22.476Z,8.20
2018-06-24T16:40:50.900Z,2.70
2018-06-24T16:43:19.373Z,3.63
2018-06-24T16:45:47.799Z,3.17
2018-06-24T16:48:16.515Z,2.50
2018-06-24T16:50:45.030Z,6.33
2018-06-24T16:53:13.437Z,2.03
2018-06-24T16:57:11.259Z,6.20
2018-06-24T16:59:39.699Z,5.13
2018-06-24T17:02:08.184Z,2.57
2018-06-24T17:04:36.653Z,4.50
2018-06-24T17:07:05.290Z,3.63
2018-06-24T17:09:33.972Z,2.00
2018-06-24T17:12:02.487Z,1.90
2018-06-24T17:14:30.954Z,3.93
2018-06-24T17:16:59.413Z,4.13
2018-06-24T17:19:27.871Z,1.47
2018-06-24T17:21:56.359Z,3.93
2018-06-24T17:24:24.779Z,2.03
2018-06-24T17:26:53.297Z,2.03
2018-06-24T17:29:21.707Z,1.83
2018-06-24T17:31:50.195Z,1.97
2018-06-24T17:34:18.591Z,5.10
2018-06-24T17:36:47.084Z,4.53
2018-06-24T17:39:15.511Z,4.43
2018-06-24T17:41:46.063Z,1.80
2018-06-24T17:44:15.315Z,7.13
2018-06-24T17:46:43.987Z,3.10
2018-06-24T17:49:12.555Z,3.83
2018-06-24T17:51:41.104Z,6.80
2018-06-24T17:54:09.540Z,1.87
2018-06-24T17:56:38.314Z,5.70
2018-06-24T17:59:06.744Z,2.57
2018-06-24T18:01:35.196Z,4.63
2018-06-24T18:04:03.856Z,2.27
2018-06-24T18:06:32.310Z,1.73
2018-06-24T18:09:00.793Z,2.87
2018-06-24T18:11:29.287Z,3.47
2018-06-24T18:13:57.795Z,5.27
2018-06-24T18:16:26.213Z,3.20
2018-06-24T18:18:54.663Z,2.80
2018-06-24T18:21:23.117Z,2.17
2018-06-24T18:23:51.548Z,3.93
2018-06-24T18:26:20.006Z,4.77
2018-06-24T18:28:48.417Z,5.27
2018-06-24T18:31:17.217Z,8.90
2018-06-24T18:33:45.670Z,8.03
2018-06-24T18:36:14.101Z,4.80
2018-06-24T18:38:42.720Z,2.10
2018-06-24T18:41:11.184Z,2.40
2018-06-24T18:43:39.786Z,2.50
2018-06-24T18:46:08.207Z,3.57
2018-06-24T18:48:36.908Z,4.90
2018-06-24T18:51:05.395Z,3.00
2018-06-24T18:53:33.842Z,4.07
2018-06-24T18:56:02.327Z,3.30
2018-06-24T18:58:30.944Z,3.30
2018-06-24T19:00:59.383Z,3.40
2018-06-24T19:03:27.923Z,5.93
2018-06-24T19:05:56.360Z,6.00
2018-06-24T19:08:24.804Z,3.33
2018-06-24T19:10:53.442Z,5.43
2018-06-24T19:13:21.851Z,3.10
2018-06-24T19:15:50.295Z,2.17
2018-06-24T19:18:19.053Z,4.87
2018-06-24T19:20:47.526Z,4.40
2018-06-24T19:23:15.974Z,2.80
2018-06-24T19:25:44.389Z,3.47
2018-06-24T19:28:13.162Z,4.63
2018-06-24T19:30:41.604Z,5.93
2018-06-24T19:33:10.003Z,5.10
2018-06-24T19:35:38.410Z,4.80
2018-06-24T19:38:06.861Z,4.23
2018-06-24T19:40:35.218Z,2.90
2018-06-24T19:43:03.652Z,8.23
2018-06-24T19:45:32.072Z,2.00
2018-06-24T19:48:00.477Z,2.53
2018-06-24T19:50:28.974Z,4.93
2018-06-24T19:52:57.779Z,4.17
2018-06-24T19:55:26.220Z,5.33
2018-06-24T19:57:54.699Z,5.80
2018-06-24T20:00:23.121Z,2.50
2018-06-24T20:02:51.575Z,3.30
2018-06-24T20:05:20.025Z,4.30
2018-06-24T20:07:48.532Z,3.80
2018-06-24T20:10:17.238Z,8.00
2018-06-24T20:12:45.781Z,5.97
2018-06-24T20:15:14.197Z,6.47
2018-06-24T20:17:42.829Z,6.40
2018-06-24T20:20:11.643Z,9.63
2018-06-24T20:22:40.280Z,6.03
2018-06-24T20:25:08.881Z,2.57
2018-06-24T20:27:37.932Z,5.10
2018-06-24T20:30:07.213Z,5.50
2018-06-24T20:32:37.300Z,6.43
2018-06-24T20:35:06.462Z,7.70
2018-06-24T20:37:34.965Z,6.27
2018-06-24T20:40:03.486Z,5.97
2018-06-24T20:42:31.953Z,4.30
2018-06-24T20:45:00.743Z,6.70
2018-06-24T20:47:29.275Z,7.70
2018-06-24T20:49:57.796Z,4.43
2018-06-24T20:52:26.402Z,6.60
2018-06-24T20:54:55.279Z,10.30
2018-06-24T20:57:23.794Z,8.43
2018-06-24T20:59:52.433Z,5.53
2018-06-24T21:02:21.090Z,16.60
2018-06-24T21:04:49.928Z,4.10
2018-06-24T21:07:18.415Z,7.03
2018-06-24T21:09:46.852Z,7.97
2018-06-24T21:12:15.347Z,6.03
2018-06-24T21:14:43.819Z,5.73
2018-06-24T21:17:12.260Z,4.77
2018-06-24T21:19:40.863Z,10.83
2018-06-24T21:22:09.325Z,8.97
2018-06-24T21:24:38.986Z,4.70
2018-06-24T21:27:08.995Z,11.67
2018-06-24T21:29:37.999Z,6.00
2018-06-24T21:32:06.758Z,7.00
2018-06-24T21:34:35.209Z,12.03
2018-06-24T21:37:03.858Z,7.50
2018-06-24T21:39:32.248Z,8.53
2018-06-24T21:42:00.953Z,7.10
2018-06-24T21:44:29.416Z,7.73
2018-06-24T21:46:57.832Z,10.93
2018-06-24T21:49:26.298Z,7.80
2018-06-24T21:51:54.724Z,5.63
2018-06-24T21:54:23.560Z,7.77
2018-06-24T21:56:51.994Z,8.60
2018-06-24T21:59:20.716Z,6.50
2018-06-24T22:03:18.254Z,6.87
2018-06-24T22:05:46.645Z,5.57
2018-06-24T22:08:15.338Z,6.37
2018-06-24T22:10:43.756Z,7.53
2018-06-24T22:13:12.188Z,8.50
2018-06-24T22:15:40.604Z,8.13
2018-06-24T22:18:09.046Z,6.43
2018-06-24T22:20:37.716Z,5.43
2018-06-24T22:23:06.140Z,7.07
2018-06-24T22:25:34.559Z,7.23
2018-06-24T22:28:03.035Z,8.50
2018-06-24T22:30:31.467Z,7.20
2018-06-24T22:32:59.891Z,9.13
2018-06-24T22:35:28.367Z,11.60
2018-06-24T22:37:56.827Z,11.20
2018-06-24T22:40:25.283Z,8.87
2018-06-24T22:42:53.694Z,7.37
2018-06-24T22:45:22.447Z,8.17
2018-06-24T22:47:50.947Z,6.00
2018-06-24T22:50:19.375Z,7.17
2018-06-24T22:52:47.792Z,8.50
2018-06-24T22:55:16.247Z,7.83
2018-06-24T22:57:44.706Z,11.40
2018-06-24T23:00:15.375Z,9.23
2018-06-24T23:02:44.447Z,8.13
2018-06-24T23:05:13.444Z,12.13
2018-06-24T23:07:43.203Z,6.00
2018-06-24T23:10:12.523Z,7.80
2018-06-24T23:12:41.216Z,9.27
2018-06-24T23:15:11.103Z,11.57
2018-06-24T23:17:40.080Z,9.07
2018-06-24T23:20:09.407Z,11.97
2018-06-24T23:22:38.027Z,9.57
2018-06-24T23:25:07.026Z,16.83
2018-06-24T23:27:35.467Z,10.50
2018-06-24T23:30:04.493Z,12.33
2018-06-24T23:32:32.947Z,9.53
2018-06-24T23:35:01.524Z,9.73
2018-06-24T23:37:29.955Z,24.93
2018-06-24T23:39:58.423Z,20.03
2018-06-24T23:42:26.835Z,18.33
2018-06-24T23:44:55.287Z,14.83
2018-06-24T23:47:23.693Z,22.67
2018-06-24T23:49:52.123Z,13.10
2018-06-24T23:52:20.542Z,14.93
2018-06-24T23:54:48.958Z,13.20
2018-06-24T23:57:17.383Z,14.57
2018-06-24T23:59:45.878Z,18.13
